Time;durP1;ratioP1;P1;durP2;ratioP2;P2;SDS_P1;SDS_P2;PMS_P1;PMS_P2;Temp;Humidity;BMP_temperature;BMP_pressure;BME280_temperature;BME280_humidity;BME280_pressure;Samples;Min_cycle;Max_cycle;Signal;HPM_P1;HPM_P2
2022/08/14 00:02:09;;;;;;;;;;;22.20;99.90;;;;;;6184900;23;19920;-73
2022/08/14 00:04:35;;;;;;;;;;;22.10;99.90;;;;;;6160155;23;19979;-73
2022/08/14 00:07:04;;;;;;;;;;;22.10;99.90;;;;;;6159679;23;19920;-75
2022/08/14 00:09:30;;;;;;;;;;;22.10;99.90;;;;;;6159875;23;20250;-71
2022/08/14 00:11:56;;;;;;;;;;;22.10;99.90;;;;;;6184917;23;19924;-71
2022/08/14 00:14:21;;;;;;;;;;;22.20;99.90;;;;;;6184884;23;20247;-73
2022/08/14 00:16:49;;;;;;;;;;;22.20;99.90;;;;;;6184902;23;19943;-73
2022/08/14 00:19:15;;;;;;;;;;;22.20;99.90;;;;;;6160112;23;19920;-73
2022/08/14 00:21:40;;;;;;;;;;;22.20;99.90;;;;;;6161664;23;19995;-73
2022/08/14 00:24:06;;;;;;;;;;;22.20;99.90;;;;;;6161699;23;19931;-75
2022/08/14 00:26:31;;;;;;;;;;;22.20;99.90;;;;;;6188122;23;19920;-75
2022/08/14 00:28:57;;;;;;;;;;;22.20;99.90;;;;;;6186390;23;19927;-74
2022/08/14 00:31:23;;;;;;;;;;;22.20;99.90;;;;;;6186567;23;19920;-72
2022/08/14 00:33:48;;;;;;;;;;;22.20;99.90;;;;;;6161663;23;20212;-74
2022/08/14 00:36:14;;;;;;;;;;;22.10;99.90;;;;;;6186531;23;19921;-75
2022/08/14 00:38:40;;;;;;;;;;;22.10;99.90;;;;;;6186447;23;20243;-73
2022/08/14 00:41:07;;;;;;;;;;;22.10;99.90;;;;;;6186158;23;19928;-73
2022/08/14 00:43:36;;;;;;;;;;;22.10;99.90;;;;;;6161590;23;19920;-73
2022/08/14 00:46:05;;;;;;;;;;;22.10;99.90;;;;;;6186430;23;19955;-75
2022/08/14 00:48:33;;;;;;;;;;;22.10;99.90;;;;;;6162613;23;19921;-73
2022/08/14 00:50:58;;;;;;;;;;;22.00;99.90;;;;;;6187236;23;19921;-73
2022/08/14 00:53:24;;;;;;;;;;;21.90;99.90;;;;;;6186040;23;19955;-73
2022/08/14 00:55:50;;;;;;;;;;;21.90;99.90;;;;;;6186598;23;19924;-72
2022/08/14 00:58:31;;;;;;;;;;;21.80;99.90;;;;;;6186130;23;19927;-74
2022/08/14 01:00:58;;;;;;;;;;;21.80;99.90;;;;;;6186461;23;20259;-73
2022/08/14 01:03:24;;;;;;;;;;;21.70;99.90;;;;;;6186259;23;19924;-74
2022/08/14 01:05:50;;;;;;;;;;;21.60;99.90;;;;;;6185912;23;19991;-74
2022/08/14 01:08:20;;;;;;;;;;;21.70;99.90;;;;;;6185646;23;19928;-74
2022/08/14 01:10:52;;;;;;;;;;;21.60;99.90;;;;;;6186546;23;19967;-73
2022/08/14 01:13:25;;;;;;;;;;;21.60;99.90;;;;;;6161410;23;19921;-75
2022/08/14 01:15:55;;;;;;;;;;;21.50;99.90;;;;;;6186180;23;19921;-72
2022/08/14 01:21:08;;;;;;;;;;;21.40;99.90;;;;;;6186029;23;19982;-74
2022/08/14 01:23:35;;;;;;;;;;;21.40;99.90;;;;;;6160945;23;19921;-73
2022/08/14 01:26:01;;;;;;;;;;;21.30;99.90;;;;;;6186171;23;19921;-73
2022/08/14 01:28:29;;;;;;;;;;;21.30;99.90;;;;;;6161585;23;19956;-72
2022/08/14 01:30:56;;;;;;;;;;;21.30;99.90;;;;;;6160749;23;19956;-72
2022/08/14 01:33:27;;;;;;;;;;;21.20;99.90;;;;;;6161215;23;19948;-73
2022/08/14 01:35:55;;;;;;;;;;;21.10;99.90;;;;;;6186088;23;19920;-73
2022/08/14 01:38:24;;;;;;;;;;;21.00;99.90;;;;;;6185729;23;19926;-73
2022/08/14 01:40:50;;;;;;;;;;;20.90;99.90;;;;;;6186148;23;20250;-75
2022/08/14 01:43:16;;;;;;;;;;;20.80;99.90;;;;;;6186017;23;19932;-74
2022/08/14 01:45:43;;;;;;;;;;;20.70;99.90;;;;;;6186282;23;20251;-74
2022/08/14 01:48:09;;;;;;;;;;;20.60;99.90;;;;;;6161017;23;19920;-73
2022/08/14 01:50:35;;;;;;;;;;;20.50;99.90;;;;;;6185838;23;19926;-73
2022/08/14 01:53:02;;;;;;;;;;;20.40;99.90;;;;;;6187388;23;19951;-73
2022/08/14 01:55:30;;;;;;;;;;;20.30;99.90;;;;;;6185776;23;20331;-73
2022/08/14 01:57:56;;;;;;;;;;;20.30;99.90;;;;;;6185521;23;19943;-73
2022/08/14 02:00:22;;;;;;;;;;;20.20;99.90;;;;;;6185727;23;19927;-75
2022/08/14 02:02:48;;;;;;;;;;;20.20;99.90;;;;;;6160902;23;19920;-73
2022/08/14 02:05:14;;;;;;;;;;;20.30;99.90;;;;;;6185768;23;19998;-73
2022/08/14 02:07:42;;;;;;;;;;;20.20;99.90;;;;;;6160667;23;19953;-73
2022/08/14 02:10:09;;;;;;;;;;;20.20;99.90;;;;;;6160745;23;19920;-73
2022/08/14 02:12:35;;;;;;;;;;;20.20;99.90;;;;;;6185790;23;19963;-74
2022/08/14 02:15:01;;;;;;;;;;;20.20;99.90;;;;;;6161712;23;19920;-74
2022/08/14 02:17:27;;;;;;;;;;;20.20;99.90;;;;;;6186058;23;19925;-75
2022/08/14 02:19:53;;;;;;;;;;;20.20;99.90;;;;;;6187004;23;20319;-75
2022/08/14 02:22:18;;;;;;;;;;;20.20;99.90;;;;;;6160902;23;19927;-74
2022/08/14 02:24:44;;;;;;;;;;;20.20;99.90;;;;;;6185064;23;19920;-73
2022/08/14 02:27:10;;;;;;;;;;;20.20;99.90;;;;;;6185497;23;19999;-73
2022/08/14 02:29:36;;;;;;;;;;;20.20;99.90;;;;;;6185286;23;19963;-75
2022/08/14 02:32:02;;;;;;;;;;;20.20;99.90;;;;;;6185500;23;20224;-73
2022/08/14 02:34:30;;;;;;;;;;;20.20;99.90;;;;;;6185428;23;19927;-73
2022/08/14 02:37:01;;;;;;;;;;;20.20;99.90;;;;;;6185373;23;19947;-73
2022/08/14 02:39:31;;;;;;;;;;;20.10;99.90;;;;;;6185062;23;20378;-74
2022/08/14 02:41:57;;;;;;;;;;;20.10;99.90;;;;;;6190433;23;19924;-74
2022/08/14 02:44:23;;;;;;;;;;;20.10;99.90;;;;;;6190283;23;19924;-73
2022/08/14 02:46:49;;;;;;;;;;;20.10;99.90;;;;;;6190644;23;19920;-74
2022/08/14 02:49:15;;;;;;;;;;;20.00;99.90;;;;;;6165341;23;20323;-73
2022/08/14 02:51:41;;;;;;;;;;;20.00;99.90;;;;;;6165402;23;19920;-74
2022/08/14 02:54:08;;;;;;;;;;;20.00;99.90;;;;;;6216961;23;20331;-72
2022/08/14 02:56:37;;;;;;;;;;;19.90;99.90;;;;;;6190185;23;19924;-73
2022/08/14 02:59:04;;;;;;;;;;;20.00;99.90;;;;;;6165164;23;20354;-73
2022/08/14 03:01:29;;;;;;;;;;;20.00;99.90;;;;;;6190332;23;19924;-74
2022/08/14 03:03:55;;;;;;;;;;;20.00;99.90;;;;;;6190233;23;20338;-75
2022/08/14 03:06:24;;;;;;;;;;;20.00;99.90;;;;;;6190257;23;19927;-73
2022/08/14 03:08:53;;;;;;;;;;;20.00;99.90;;;;;;6165823;23;19927;-74
2022/08/14 03:11:19;;;;;;;;;;;20.10;99.90;;;;;;6190140;23;19919;-75
2022/08/14 03:13:46;;;;;;;;;;;20.10;99.90;;;;;;6165375;23;19966;-75
2022/08/14 03:16:13;;;;;;;;;;;20.10;99.90;;;;;;6190042;23;19920;-74
2022/08/14 03:18:41;;;;;;;;;;;20.10;99.90;;;;;;6165091;23;19926;-73
2022/08/14 03:21:07;;;;;;;;;;;20.10;99.90;;;;;;6190171;23;19923;-75
2022/08/14 03:23:34;;;;;;;;;;;20.10;99.90;;;;;;6190040;23;19927;-72
2022/08/14 03:26:02;;;;;;;;;;;20.20;99.90;;;;;;6190003;23;19920;-73
2022/08/14 03:28:28;;;;;;;;;;;20.10;99.90;;;;;;6165057;23;19991;-74
2022/08/14 03:30:54;;;;;;;;;;;20.10;99.90;;;;;;6165219;23;19926;-75
2022/08/14 03:33:20;;;;;;;;;;;20.10;99.90;;;;;;6190270;23;19956;-73
2022/08/14 03:35:45;;;;;;;;;;;20.20;99.90;;;;;;6165085;23;20392;-73
2022/08/14 03:38:11;;;;;;;;;;;20.10;99.90;;;;;;6165036;23;19970;-72
2022/08/14 03:40:38;;;;;;;;;;;20.10;99.90;;;;;;6160328;23;19982;-74
2022/08/14 03:43:05;;;;;;;;;;;20.10;99.90;;;;;;6186287;23;20331;-73
2022/08/14 03:45:32;;;;;;;;;;;20.10;99.90;;;;;;6185620;23;20012;-73
2022/08/14 03:47:59;;;;;;;;;;;20.10;99.90;;;;;;6160384;23;19995;-73
2022/08/14 03:50:26;;;;;;;;;;;20.00;99.90;;;;;;6160186;23;19920;-73
2022/08/14 03:52:51;;;;;;;;;;;19.90;99.90;;;;;;6160146;23;20283;-74
2022/08/14 03:55:17;;;;;;;;;;;19.90;99.90;;;;;;6186352;23;19974;-72
2022/08/14 03:57:42;;;;;;;;;;;19.80;99.90;;;;;;6186620;23;20235;-74
2022/08/14 04:00:10;;;;;;;;;;;19.70;99.90;;;;;;6186697;23;20247;-74
2022/08/14 04:02:37;;;;;;;;;;;19.70;99.90;;;;;;6162059;23;19921;-73
2022/08/14 04:05:06;;;;;;;;;;;19.70;99.90;;;;;;6186449;23;20291;-71
2022/08/14 04:07:32;;;;;;;;;;;19.70;99.90;;;;;;6161631;23;19979;-75
2022/08/14 04:09:58;;;;;;;;;;;19.70;99.90;;;;;;6186713;23;19920;-73
2022/08/14 04:12:23;;;;;;;;;;;19.70;99.90;;;;;;6186911;23;20333;-73
2022/08/14 04:14:51;;;;;;;;;;;19.80;99.90;;;;;;6186713;23;19920;-72
2022/08/14 04:17:20;;;;;;;;;;;19.70;99.90;;;;;;6187278;23;19931;-73
2022/08/14 04:19:46;;;;;;;;;;;19.80;99.90;;;;;;6161758;23;20414;-73
2022/08/14 04:22:12;;;;;;;;;;;19.80;99.90;;;;;;6186712;23;19995;-73
2022/08/14 04:24:38;;;;;;;;;;;19.70;99.90;;;;;;6186836;23;20250;-73
2022/08/14 04:27:10;;;;;;;;;;;19.80;99.90;;;;;;6186694;23;19927;-73
2022/08/14 04:29:40;;;;;;;;;;;19.80;99.90;;;;;;6162234;23;19921;-76
2022/08/14 04:32:07;;;;;;;;;;;19.80;99.90;;;;;;6186588;23;20334;-74
2022/08/14 04:34:33;;;;;;;;;;;19.80;99.90;;;;;;6161670;23;19924;-73
2022/08/14 04:45:18;;;;;;;;;;;19.80;99.90;;;;;;6191561;23;19998;-74
2022/08/14 04:50:28;;;;;;;;;;;19.80;99.90;;;;;;6191427;23;20358;-72
2022/08/14 04:52:56;;;;;;;;;;;19.80;99.90;;;;;;6191272;23;19969;-73
2022/08/14 04:55:22;;;;;;;;;;;19.80;99.90;;;;;;6191563;23;19998;-72
2022/08/14 04:57:47;;;;;;;;;;;19.90;99.90;;;;;;6191179;23;20382;-73
2022/08/14 05:00:13;;;;;;;;;;;19.90;99.90;;;;;;6166545;23;19956;-74
2022/08/14 05:02:39;;;;;;;;;;;19.90;99.90;;;;;;6166508;23;20220;-73
2022/08/14 05:05:04;;;;;;;;;;;20.00;99.90;;;;;;6191217;23;19955;-73
2022/08/14 05:07:31;;;;;;;;;;;20.00;99.90;;;;;;6190792;23;19947;-73
2022/08/14 05:09:56;;;;;;;;;;;20.10;99.90;;;;;;6192950;23;20355;-73
2022/08/14 05:12:22;;;;;;;;;;;20.10;99.90;;;;;;6167417;23;19920;-73
2022/08/14 05:14:49;;;;;;;;;;;20.20;99.90;;;;;;6166114;23;19986;-74
2022/08/14 05:17:14;;;;;;;;;;;20.30;99.90;;;;;;6191213;23;19959;-73
2022/08/14 05:19:40;;;;;;;;;;;20.30;99.90;;;;;;6166189;23;19924;-73
2022/08/14 05:22:06;;;;;;;;;;;20.30;99.90;;;;;;6166289;23;19927;-71
2022/08/14 05:24:32;;;;;;;;;;;20.40;99.90;;;;;;6191061;23;19966;-74
2022/08/14 05:26:58;;;;;;;;;;;20.40;99.90;;;;;;6191178;23;19927;-75
2022/08/14 05:29:24;;;;;;;;;;;20.40;99.90;;;;;;6190934;23;20319;-76
2022/08/14 05:31:49;;;;;;;;;;;20.50;99.90;;;;;;6191065;23;19927;-76
2022/08/14 05:34:15;;;;;;;;;;;20.60;99.90;;;;;;6190793;23;20084;-75
2022/08/14 05:36:41;;;;;;;;;;;20.70;99.90;;;;;;6165951;23;20234;-74
2022/08/14 05:39:07;;;;;;;;;;;20.80;99.90;;;;;;6190552;23;19924;-75
2022/08/14 05:41:33;;;;;;;;;;;20.90;99.90;;;;;;6190170;23;19990;-73
2022/08/14 05:43:58;;;;;;;;;;;21.00;99.90;;;;;;6166171;23;20274;-76
2022/08/14 05:46:24;;;;;;;;;;;21.10;99.90;;;;;;6166081;23;19920;-71
2022/08/14 05:48:52;;;;;;;;;;;21.20;99.90;;;;;;6165551;23;19920;-73
2022/08/14 05:51:18;;;;;;;;;;;21.20;99.90;;;;;;6217867;23;20285;-71
2022/08/14 05:53:44;;;;;;;;;;;21.30;99.90;;;;;;6217240;23;19982;-73
2022/08/14 05:56:09;;;;;;;;;;;21.50;99.90;;;;;;6165841;23;19924;-70
2022/08/14 05:58:36;;;;;;;;;;;21.50;99.90;;;;;;6190483;23;19920;-71
2022/08/14 06:01:01;;;;;;;;;;;21.60;99.90;;;;;;6190531;23;19927;-71
2022/08/14 06:03:27;;;;;;;;;;;21.70;99.90;;;;;;6190084;23;19920;-72
2022/08/14 06:05:53;;;;;;;;;;;21.90;99.90;;;;;;6165696;23;19999;-74
2022/08/14 06:08:20;;;;;;;;;;;21.90;99.90;;;;;;6190612;23;19920;-73
2022/08/14 06:10:46;;;;;;;;;;;22.00;99.90;;;;;;6190378;23;19996;-71
2022/08/14 06:13:12;;;;;;;;;;;22.10;99.90;;;;;;6190470;23;19951;-70
2022/08/14 06:15:38;;;;;;;;;;;22.20;99.90;;;;;;6217110;23;19970;-70
2022/08/14 06:18:04;;;;;;;;;;;22.30;99.90;;;;;;6165280;23;19924;-70
2022/08/14 06:20:30;;;;;;;;;;;22.50;99.90;;;;;;6190540;23;19955;-71
2022/08/14 06:22:55;;;;;;;;;;;22.50;99.90;;;;;;6165604;23;19920;-72
2022/08/14 06:25:21;;;;;;;;;;;22.70;99.90;;;;;;6190320;23;19955;-69
2022/08/14 06:27:48;;;;;;;;;;;22.70;99.90;;;;;;6190449;23;19919;-71
2022/08/14 06:30:14;;;;;;;;;;;22.90;99.90;;;;;;6216849;23;19919;-70
2022/08/14 06:32:40;;;;;;;;;;;22.90;99.90;;;;;;6165705;23;19920;-71
2022/08/14 06:35:07;;;;;;;;;;;23.10;99.90;;;;;;6190101;23;19927;-74
2022/08/14 06:37:39;;;;;;;;;;;23.10;99.90;;;;;;6216803;23;20047;-74
2022/08/14 06:40:06;;;;;;;;;;;23.10;99.90;;;;;;6164986;23;19927;-73
2022/08/14 06:42:35;;;;;;;;;;;23.30;99.90;;;;;;6190478;23;19996;-72
2022/08/14 06:45:00;;;;;;;;;;;23.50;99.90;;;;;;6190205;23;20327;-75
2022/08/14 06:47:43;;;;;;;;;;;23.60;99.90;;;;;;6189627;23;20323;-72
2022/08/14 06:50:20;;;;;;;;;;;23.60;99.90;;;;;;6164718;23;19916;-76
2022/08/14 06:52:55;;;;;;;;;;;23.70;99.90;;;;;;6190438;23;19916;-78
2022/08/14 06:55:35;;;;;;;;;;;23.90;99.90;;;;;;6190171;23;19915;-77
2022/08/14 06:58:31;;;;;;;;;;;23.90;99.90;;;;;;6163962;23;19970;-78
2022/08/14 07:06:46;;;;;;;;;;;24.00;99.90;;;;;;6188065;23;19920;-79
2022/08/14 07:09:24;;;;;;;;;;;24.10;99.90;;;;;;6140067;23;19970;-75
2022/08/14 07:12:03;;;;;;;;;;;24.20;99.90;;;;;;6164741;23;19922;-77
2022/08/14 07:14:50;;;;;;;;;;;24.50;99.90;;;;;;6186618;23;19916;-78
2022/08/14 07:17:32;;;;;;;;;;;24.40;99.90;;;;;;6189131;23;19958;-74
2022/08/14 07:21:18;;;;;;;;;;;24.50;99.90;;;;;;6165730;23;19916;-77
2022/08/14 07:23:45;;;;;;;;;;;24.50;99.90;;;;;;6038852;23;20360;-77
2022/08/14 07:36:58;;;;;;;;;;;24.70;99.90;;;;;;6057023;23;20368;-73
2022/08/14 07:39:23;;;;;;;;;;;24.90;99.90;;;;;;6217673;23;19920;-70
2022/08/14 07:41:49;;;;;;;;;;;24.90;99.90;;;;;;6216700;23;20061;-75
2022/08/14 07:44:19;;;;;;;;;;;25.00;99.90;;;;;;6191924;23;20320;-81
2022/08/14 07:47:16;;;;;;;;;;;25.10;99.90;;;;;;6218429;23;20273;-73
2022/08/14 07:53:37;;;;;;;;;;;25.50;99.90;;;;;;6217673;23;19995;-70
2022/08/14 07:56:14;;;;;;;;;;;25.60;99.90;;;;;;6214877;23;19920;-70
2022/08/14 07:58:58;;;;;;;;;;;25.80;99.90;;;;;;6188514;23;19927;-76
2022/08/14 08:01:29;;;;;;;;;;;25.90;99.90;;;;;;6164325;23;19994;-73
2022/08/14 08:04:05;;;;;;;;;;;26.00;99.90;;;;;;6216754;23;19920;-74
2022/08/14 08:06:30;;;;;;;;;;;26.20;99.90;;;;;;6166163;23;19999;-72
2022/08/14 08:08:57;;;;;;;;;;;26.20;99.90;;;;;;6217836;23;19978;-70
2022/08/14 08:11:24;;;;;;;;;;;26.20;99.90;;;;;;6191472;23;19926;-69
2022/08/14 08:13:50;;;;;;;;;;;26.40;99.90;;;;;;6218025;23;19920;-70
2022/08/14 08:16:20;;;;;;;;;;;26.30;99.90;;;;;;6218259;23;19920;-70
2022/08/14 08:18:46;;;;;;;;;;;26.60;99.90;;;;;;6191697;23;19920;-70
2022/08/14 08:21:11;;;;;;;;;;;26.60;99.70;;;;;;6191298;23;19927;-71
2022/08/14 08:23:37;;;;;;;;;;;26.80;99.50;;;;;;6191615;23;19920;-72
2022/08/14 08:29:23;;;;;;;;;;;27.20;98.30;;;;;;6197871;23;20005;-77
2022/08/14 08:32:21;;;;;;;;;;;27.20;97.60;;;;;;6168076;23;19923;-70
2022/08/14 08:34:47;;;;;;;;;;;27.30;97.50;;;;;;6190997;23;19920;-72
2022/08/14 08:40:56;;;;;;;;;;;27.50;97.90;;;;;;6188649;23;19916;-75
2022/08/14 08:43:28;;;;;;;;;;;27.70;97.40;;;;;;6164662;23;19916;-69
2022/08/14 08:45:55;;;;;;;;;;;27.70;96.70;;;;;;6189595;23;20232;-69
2022/08/14 08:48:22;;;;;;;;;;;27.70;96.70;;;;;;6191076;23;19916;-69
2022/08/14 08:50:48;;;;;;;;;;;27.50;96.20;;;;;;6215980;23;19916;-69
2022/08/14 08:53:13;;;;;;;;;;;27.60;96.90;;;;;;6190504;23;19920;-69
2022/08/14 08:55:42;;;;;;;;;;;27.60;95.80;;;;;;6165568;23;19916;-69
2022/08/14 08:58:10;;;;;;;;;;;27.80;96.00;;;;;;6217078;23;19924;-70
2022/08/14 09:00:46;;;;;;;;;;;27.80;94.90;;;;;;6190867;23;19939;-69
2022/08/14 09:03:19;;;;;;;;;;;27.90;94.70;;;;;;6191772;23;20006;-69
2022/08/14 09:06:11;;;;;;;;;;;27.80;94.60;;;;;;6191031;23;20290;-69
2022/08/14 09:08:44;;;;;;;;;;;27.80;94.10;;;;;;6183531;23;19923;-70
2022/08/14 09:11:12;;;;;;;;;;;27.60;94.10;;;;;;6165939;23;19920;-69
2022/08/14 09:13:50;;;;;;;;;;;27.70;94.60;;;;;;6217935;23;19994;-69
2022/08/14 09:16:21;;;;;;;;;;;27.80;94.80;;;;;;6166080;23;19920;-70
2022/08/14 09:19:00;;;;;;;;;;;28.00;94.40;;;;;;6167967;23;19926;-69
2022/08/14 09:21:28;;;;;;;;;;;28.20;94.40;;;;;;6191062;23;20311;-70
2022/08/14 09:24:04;;;;;;;;;;;28.20;93.40;;;;;;6166905;23;19920;-69
2022/08/14 09:26:40;;;;;;;;;;;28.00;93.90;;;;;;6190442;23;19920;-70
2022/08/14 09:29:06;;;;;;;;;;;28.20;94.10;;;;;;6190573;23;19927;-69
2022/08/14 09:31:38;;;;;;;;;;;28.30;93.70;;;;;;6190745;23;19924;-70
2022/08/14 09:34:04;;;;;;;;;;;28.20;93.40;;;;;;6191081;23;20319;-69
2022/08/14 09:36:50;;;;;;;;;;;28.40;93.20;;;;;;6165998;23;19927;-69
2022/08/14 09:39:19;;;;;;;;;;;28.40;93.10;;;;;;6190477;23;19920;-70
2022/08/14 09:42:06;;;;;;;;;;;28.40;92.60;;;;;;6190138;23;19951;-70
2022/08/14 09:44:40;;;;;;;;;;;28.60;93.70;;;;;;6190198;23;20223;-69
2022/08/14 09:47:11;;;;;;;;;;;28.80;92.90;;;;;;6190883;23;19927;-70
2022/08/14 09:49:45;;;;;;;;;;;28.90;93.40;;;;;;6190378;23;19927;-70
2022/08/14 09:52:15;;;;;;;;;;;29.00;92.40;;;;;;6190318;23;19926;-69
2022/08/14 09:54:43;;;;;;;;;;;29.00;92.90;;;;;;6190592;23;19945;-70
2022/08/14 09:58:06;;;;;;;;;;;29.10;92.60;;;;;;6190534;23;20318;-70
2022/08/14 10:00:48;;;;;;;;;;;28.90;92.30;;;;;;6145143;23;20326;-69
2022/08/14 10:03:24;;;;;;;;;;;28.80;92.00;;;;;;6189648;23;19920;-69
2022/08/14 10:06:02;;;;;;;;;;;28.80;92.00;;;;;;6190287;23;19943;-69
2022/08/14 10:08:40;;;;;;;;;;;29.10;92.20;;;;;;6189713;23;19965;-71
2022/08/14 10:11:26;;;;;;;;;;;29.30;91.60;;;;;;6167433;23;19920;-69
2022/08/14 10:14:38;;;;;;;;;;;29.10;91.80;;;;;;6217000;23;19920;-70
2022/08/14 10:17:06;;;;;;;;;;;29.20;91.50;;;;;;6042275;23;20337;-69
2022/08/14 10:19:33;;;;;;;;;;;29.40;90.90;;;;;;6018519;23;19922;-69
2022/08/14 10:22:09;;;;;;;;;;;29.50;91.30;;;;;;6146578;23;19923;-70
2022/08/14 10:24:49;;;;;;;;;;;29.30;91.60;;;;;;6216885;23;20224;-69
2022/08/14 10:27:23;;;;;;;;;;;29.10;90.90;;;;;;6189891;23;19923;-69
2022/08/14 10:29:53;;;;;;;;;;;29.50;91.40;;;;;;6165494;23;19916;-69
2022/08/14 10:32:21;;;;;;;;;;;29.50;90.60;;;;;;6216245;23;19927;-70
2022/08/14 10:35:05;;;;;;;;;;;29.60;90.10;;;;;;6189702;23;19962;-70
2022/08/14 10:38:00;;;;;;;;;;;29.70;90.40;;;;;;6188260;23;19927;-69
2022/08/14 10:40:38;;;;;;;;;;;29.80;89.60;;;;;;6165892;23;19965;-70
2022/08/14 10:43:20;;;;;;;;;;;29.90;88.80;;;;;;6158818;23;19970;-70
2022/08/14 10:46:05;;;;;;;;;;;29.60;89.60;;;;;;6161670;23;19924;-69
2022/08/14 10:48:42;;;;;;;;;;;29.50;90.00;;;;;;6159568;23;19951;-70
2022/08/14 10:51:24;;;;;;;;;;;29.90;88.90;;;;;;6134730;23;20398;-69
2022/08/14 10:54:07;;;;;;;;;;;29.60;88.10;;;;;;6158496;23;19927;-70
2022/08/14 10:56:51;;;;;;;;;;;29.70;88.70;;;;;;6159397;23;19940;-69
2022/08/14 10:59:32;;;;;;;;;;;29.90;89.10;;;;;;6134911;23;19924;-70
2022/08/14 11:02:00;;;;;;;;;;;30.00;88.10;;;;;;6135480;23;19923;-69
2022/08/14 11:04:29;;;;;;;;;;;29.90;89.40;;;;;;6134823;23;19920;-69
2022/08/14 11:07:01;;;;;;;;;;;29.80;86.90;;;;;;6135182;23;19917;-69
2022/08/14 11:09:32;;;;;;;;;;;29.90;87.60;;;;;;6186466;23;19939;-70
2022/08/14 11:15:51;;;;;;;;;;;30.00;85.90;;;;;;6160198;23;19941;-70
2022/08/14 11:21:20;;;;;;;;;;;30.10;86.80;;;;;;6159501;23;20327;-70
2022/08/14 11:23:52;;;;;;;;;;;30.00;85.50;;;;;;6134946;23;19916;-70
2022/08/14 11:26:44;;;;;;;;;;;30.30;84.40;;;;;;6159772;23;20002;-70
2022/08/14 11:29:24;;;;;;;;;;;30.30;84.10;;;;;;6159002;23;19916;-70
2022/08/14 11:32:18;;;;;;;;;;;30.30;83.90;;;;;;6184628;23;19916;-70
2022/08/14 11:35:05;;;;;;;;;;;30.30;83.70;;;;;;6159616;23;19979;-71
2022/08/14 11:38:00;;;;;;;;;;;30.70;83.50;;;;;;6158524;23;19920;-70
2022/08/14 11:40:47;;;;;;;;;;;30.30;82.30;;;;;;6186139;23;20243;-70
2022/08/14 11:43:32;;;;;;;;;;;30.40;84.40;;;;;;6159927;23;19925;-69
2022/08/14 11:46:17;;;;;;;;;;;30.30;81.70;;;;;;6160260;23;19928;-70
2022/08/14 11:49:32;;;;;;;;;;;30.50;81.10;;;;;;6142053;23;20876;-70
2022/08/14 11:52:21;;;;;;;;;;;30.60;80.80;;;;;;6159770;23;20386;-70
2022/08/14 11:55:28;;;;;;;;;;;;;;;;;;;;;
2022/08/14 11:58:26;;;;;;;;;;;30.70;81.80;;;;;;6094524;23;19921;-70
2022/08/14 12:01:20;;;;;;;;;;;30.70;80.90;;;;;;6138074;23;19923;-70
2022/08/14 12:03:57;;;;;;;;;;;30.60;79.30;;;;;;6158141;23;19930;-70
2022/08/14 12:07:05;;;;;;;;;;;30.30;80.80;;;;;;6186053;23;19991;-71
2022/08/14 12:10:08;;;;;;;;;;;30.60;81.10;;;;;;6184400;23;19916;-69
2022/08/14 12:15:54;;;;;;;;;;;30.80;80.00;;;;;;6186954;23;20014;-70
2022/08/14 12:18:51;;;;;;;;;;;30.70;77.30;;;;;;6162762;23;20274;-70
2022/08/14 12:21:23;;;;;;;;;;;30.70;78.00;;;;;;6102145;23;19916;-69
2022/08/14 12:27:13;;;;;;;;;;;31.00;79.40;;;;;;6125688;23;20517;-70
2022/08/14 12:29:52;;;;;;;;;;;30.50;77.90;;;;;;6100883;23;19971;-70
2022/08/14 12:32:43;;;;;;;;;;;30.70;77.30;;;;;;6125752;23;19928;-70
2022/08/14 12:35:56;;;;;;;;;;;30.90;76.30;;;;;;6062566;23;19928;-69
2022/08/14 12:39:02;;;;;;;;;;;30.80;76.90;;;;;;6124407;23;19975;-70
2022/08/14 12:42:09;;;;;;;;;;;30.50;77.30;;;;;;6089934;23;19942;-71
2022/08/14 12:47:58;;;;;;;;;;;30.90;76.20;;;;;;6123960;23;19922;-68
2022/08/14 12:50:39;;;;;;;;;;;30.90;77.90;;;;;;6155140;23;19920;-68
2022/08/14 12:53:39;;;;;;;;;;;31.00;77.30;;;;;;6175977;23;20020;-70
2022/08/14 12:56:24;;;;;;;;;;;30.80;76.80;;;;;;6179678;23;20065;-69
2022/08/14 12:59:40;;;;;;;;;;;30.70;76.30;;;;;;6157379;23;19920;-69
2022/08/14 13:02:24;;;;;;;;;;;31.10;77.60;;;;;;6182764;23;19938;-69
2022/08/14 13:05:26;;;;;;;;;;;;;;;;;;;;;
2022/08/14 13:08:11;;;;;;;;;;;31.00;77.10;;;;;;6187188;23;19943;-70
2022/08/14 13:10:44;;;;;;;;;;;31.40;77.40;;;;;;6184981;23;19920;-69
2022/08/14 13:13:27;;;;;;;;;;;31.20;76.10;;;;;;6185257;23;19955;-70
2022/08/14 13:20:05;;;;;;;;;;;;;;;;;;;;;
2022/08/14 13:22:42;;;;;;;;;;;31.50;75.90;;;;;;6154688;23;19916;-71
2022/08/14 13:25:38;;;;;;;;;;;31.40;73.50;;;;;;6133748;23;19979;-70
2022/08/14 13:28:22;;;;;;;;;;;31.10;73.70;;;;;;6099045;23;19916;-70
2022/08/14 13:31:16;;;;;;;;;;;31.50;73.10;;;;;;6154300;23;19944;-70
2022/08/14 13:34:14;;;;;;;;;;;31.10;73.20;;;;;;6128564;23;20008;-71
2022/08/14 13:37:10;;;;;;;;;;;31.10;75.30;;;;;;6071441;23;20315;-71
2022/08/14 13:39:44;;;;;;;;;;;31.10;73.70;;;;;;6064372;23;20016;-70
2022/08/14 13:42:42;;;;;;;;;;;31.10;75.30;;;;;;5980595;23;19930;-70
2022/08/14 13:45:21;;;;;;;;;;;31.20;74.00;;;;;;5974475;24;20343;-70
2022/08/14 13:51:03;;;;;;;;;;;31.30;72.90;;;;;;6108327;23;20011;-70
2022/08/14 13:53:47;;;;;;;;;;;31.50;73.30;;;;;;6129521;23;19924;-70
2022/08/14 13:56:18;;;;;;;;;;;31.30;74.30;;;;;;6115856;23;19917;-70
2022/08/14 13:59:13;;;;;;;;;;;31.10;73.40;;;;;;6154067;23;19921;-70
2022/08/14 14:02:32;;;;;;;;;;;;;;;;;;;;;
2022/08/14 14:05:25;;;;;;;;;;;31.60;72.40;;;;;;6128828;23;19938;-70
2022/08/14 14:08:14;;;;;;;;;;;;;;;;;;;;;
2022/08/14 14:11:04;;;;;;;;;;;32.00;71.40;;;;;;6153951;23;19936;-70
2022/08/14 14:14:14;;;;;;;;;;;32.00;70.60;;;;;;6090323;23;20337;-70
2022/08/14 14:16:52;;;;;;;;;;;32.00;69.90;;;;;;6158487;23;20370;-70
2022/08/14 14:19:26;;;;;;;;;;;32.20;71.30;;;;;;6126119;23;19927;-70
2022/08/14 14:22:08;;;;;;;;;;;32.40;70.60;;;;;;6153811;23;19921;-70
2022/08/14 14:25:14;;;;;;;;;;;;;;;;;;;;;
2022/08/14 14:34:23;;;;;;;;;;;32.30;69.10;;;;;;6031356;23;20016;-70
2022/08/14 14:37:13;;;;;;;;;;;;;;;;;;;;;
2022/08/14 14:39:54;;;;;;;;;;;32.60;68.10;;;;;;6127671;23;19920;-71
2022/08/14 14:46:06;;;;;;;;;;;32.80;67.20;;;;;;6082233;23;20011;-72
2022/08/14 14:56:17;;;;;;;;;;;32.40;68.10;;;;;;6156085;23;19932;-71
2022/08/14 15:01:42;;;;;;;;;;;32.60;66.60;;;;;;6136584;23;19920;-71
2022/08/14 15:04:19;;;;;;;;;;;32.80;67.00;;;;;;6134394;23;19921;-71
2022/08/14 15:13:39;;;;;;;;;;;33.80;64.80;;;;;;6128483;23;19920;-71
2022/08/14 15:16:19;;;;;;;;;;;34.40;62.90;;;;;;6185434;23;19928;-71
2022/08/14 15:22:48;;;;;;;;;;;34.50;62.90;;;;;;6157927;23;19989;-70
2022/08/14 15:25:55;;;;;;;;;;;34.40;61.20;;;;;;6134747;23;19995;-71
2022/08/14 15:28:53;;;;;;;;;;;;;;;;;;;;;
2022/08/14 15:35:24;;;;;;;;;;;;;;;;;;;;;
2022/08/14 15:44:32;;;;;;;;;;;;;;;;;;;;;
2022/08/14 15:47:33;;;;;;;;;;;;;;;;;;;;;
2022/08/14 15:50:45;;;;;;;;;;;;;;;;;;;;;
2022/08/14 15:53:38;;;;;;;;;;;;;;;;;;;;;
2022/08/14 15:56:14;;;;;;;;;;;34.70;58.80;;;;;;6111375;23;19967;-71
2022/08/14 16:02:01;;;;;;;;;;;;;;;;;;;;;
2022/08/14 16:04:54;;;;;;;;;;;35.30;57.00;;;;;;6154336;23;20262;-71
2022/08/14 16:07:58;;;;;;;;;;;34.40;57.70;;;;;;6154689;23;19972;-71
2022/08/14 16:11:36;;;;;;;;;;;;;;;;;;;;;
2022/08/14 16:14:36;;;;;;;;;;;35.10;58.00;;;;;;6014404;23;19992;-71
2022/08/14 16:17:53;;;;;;;;;;;34.90;57.70;;;;;;6155189;23;19997;-71
2022/08/14 16:20:30;;;;;;;;;;;33.80;58.30;;;;;;6054580;23;19921;-71
2022/08/14 16:23:26;;;;;;;;;;;32.50;60.70;;;;;;6047688;23;19951;-70
2022/08/14 16:26:28;;;;;;;;;;;31.90;61.30;;;;;;6154837;23;20364;-71
2022/08/14 16:29:10;;;;;;;;;;;31.50;64.50;;;;;;6139053;23;20000;-70
2022/08/14 16:31:45;;;;;;;;;;;31.10;65.60;;;;;;6128512;23;19968;-70
2022/08/14 16:34:22;;;;;;;;;;;30.70;65.70;;;;;;6127389;23;19995;-70
2022/08/14 16:37:17;;;;;;;;;;;30.50;67.40;;;;;;6127186;23;19972;-70
2022/08/14 16:39:58;;;;;;;;;;;30.50;66.10;;;;;;6130412;23;19923;-70
2022/08/14 16:42:32;;;;;;;;;;;30.40;67.60;;;;;;6128166;23;19920;-70
2022/08/14 16:45:06;;;;;;;;;;;30.40;67.30;;;;;;6130340;23;19917;-70
2022/08/14 16:47:38;;;;;;;;;;;30.10;68.30;;;;;;6129467;23;20429;-70
2022/08/14 16:50:28;;;;;;;;;;;30.00;68.00;;;;;;6136556;23;19936;-70
2022/08/14 16:53:04;;;;;;;;;;;29.80;67.10;;;;;;6189791;23;20329;-70
2022/08/14 16:55:38;;;;;;;;;;;29.90;68.10;;;;;;6190725;23;19916;-70
2022/08/14 16:58:18;;;;;;;;;;;29.90;69.20;;;;;;6158975;23;19920;-70
2022/08/14 17:00:52;;;;;;;;;;;29.90;69.50;;;;;;6166118;23;19952;-69
2022/08/14 17:03:20;;;;;;;;;;;29.90;69.10;;;;;;6189932;23;19997;-70
2022/08/14 17:06:11;;;;;;;;;;;29.80;68.40;;;;;;6189936;23;19942;-70
2022/08/14 17:08:42;;;;;;;;;;;29.80;67.70;;;;;;6211867;23;19926;-70